sensor_id;sensor_type;location;lat;lon;timestamp;P1;durP1;ratioP1;P2;durP2;ratioP2
34805;SDS011;65084;42.196;25.326;2023-07-20T00:01:53;16.88;;;5.53;;
34805;SDS011;65084;42.196;25.326;2023-07-20T00:04:21;5.30;;;4.80;;
34805;SDS011;65084;42.196;25.326;2023-07-20T00:06:48;10.60;;;4.45;;
34805;SDS011;65084;42.196;25.326;2023-07-20T00:09:15;9.10;;;5.57;;
34805;SDS011;65084;42.196;25.326;2023-07-20T00:11:47;12.75;;;4.90;;
34805;SDS011;65084;42.196;25.326;2023-07-20T00:14:17;8.25;;;5.30;;
34805;SDS011;65084;42.196;25.326;2023-07-20T00:16:44;8.85;;;4.93;;
34805;SDS011;65084;42.196;25.326;2023-07-20T00:19:14;9.65;;;5.28;;
34805;SDS011;65084;42.196;25.326;2023-07-20T00:21:42;10.60;;;5.38;;
34805;SDS011;65084;42.196;25.326;2023-07-20T00:24:09;8.20;;;4.97;;
34805;SDS011;65084;42.196;25.326;2023-07-20T00:26:36;6.90;;;5.63;;
34805;SDS011;65084;42.196;25.326;2023-07-20T00:29:04;4.90;;;4.47;;
34805;SDS011;65084;42.196;25.326;2023-07-20T00:31:32;7.82;;;5.47;;
34805;SDS011;65084;42.196;25.326;2023-07-20T00:34:02;6.47;;;5.13;;
34805;SDS011;65084;42.196;25.326;2023-07-20T00:36:29;10.70;;;5.47;;
34805;SDS011;65084;42.196;25.326;2023-07-20T00:38:56;10.77;;;4.82;;
34805;SDS011;65084;42.196;25.326;2023-07-20T00:41:24;8.27;;;5.10;;
34805;SDS011;65084;42.196;25.326;2023-07-20T00:43:54;8.23;;;5.43;;
34805;SDS011;65084;42.196;25.326;2023-07-20T00:46:22;6.85;;;4.85;;
34805;SDS011;65084;42.196;25.326;2023-07-20T00:48:51;6.50;;;4.78;;
34805;SDS011;65084;42.196;25.326;2023-07-20T00:51:18;7.22;;;5.30;;
34805;SDS011;65084;42.196;25.326;2023-07-20T00:53:45;5.72;;;4.70;;
34805;SDS011;65084;42.196;25.326;2023-07-20T00:56:13;7.63;;;5.13;;
34805;SDS011;65084;42.196;25.326;2023-07-20T00:58:41;12.30;;;5.13;;
34805;SDS011;65084;42.196;25.326;2023-07-20T01:01:08;9.80;;;5.47;;
34805;SDS011;65084;42.196;25.326;2023-07-20T01:03:36;15.18;;;5.60;;
34805;SDS011;65084;42.196;25.326;2023-07-20T01:06:07;13.57;;;4.85;;
34805;SDS011;65084;42.196;25.326;2023-07-20T01:11:21;11.25;;;5.00;;
34805;SDS011;65084;42.196;25.326;2023-07-20T01:13:50;9.85;;;5.28;;
34805;SDS011;65084;42.196;25.326;2023-07-20T01:16:17;13.15;;;4.57;;
34805;SDS011;65084;42.196;25.326;2023-07-20T01:18:44;8.07;;;4.88;;
34805;SDS011;65084;42.196;25.326;2023-07-20T01:21:17;8.02;;;4.45;;
34805;SDS011;65084;42.196;25.326;2023-07-20T01:23:54;13.57;;;4.38;;
34805;SDS011;65084;42.196;25.326;2023-07-20T01:26:45;11.90;;;4.30;;
34805;SDS011;65084;42.196;25.326;2023-07-20T01:29:27;7.68;;;4.50;;
34805;SDS011;65084;42.196;25.326;2023-07-20T01:31:58;7.32;;;3.95;;
34805;SDS011;65084;42.196;25.326;2023-07-20T01:34:28;10.88;;;4.40;;
34805;SDS011;65084;42.196;25.326;2023-07-20T01:36:56;5.32;;;4.20;;
34805;SDS011;65084;42.196;25.326;2023-07-20T01:39:23;14.38;;;4.70;;
34805;SDS011;65084;42.196;25.326;2023-07-20T01:41:51;12.57;;;4.07;;
34805;SDS011;65084;42.196;25.326;2023-07-20T01:44:18;9.63;;;4.15;;
34805;SDS011;65084;42.196;25.326;2023-07-20T01:46:45;9.25;;;4.35;;
34805;SDS011;65084;42.196;25.326;2023-07-20T01:49:14;7.50;;;3.90;;
34805;SDS011;65084;42.196;25.326;2023-07-20T01:51:41;12.50;;;4.68;;
34805;SDS011;65084;42.196;25.326;2023-07-20T01:54:09;22.65;;;4.18;;
34805;SDS011;65084;42.196;25.326;2023-07-20T01:56:36;7.05;;;4.22;;
34805;SDS011;65084;42.196;25.326;2023-07-20T01:59:04;6.43;;;4.10;;
34805;SDS011;65084;42.196;25.326;2023-07-20T02:01:31;20.95;;;4.60;;
34805;SDS011;65084;42.196;25.326;2023-07-20T02:03:58;5.90;;;4.47;;
34805;SDS011;65084;42.196;25.326;2023-07-20T02:06:27;10.55;;;5.18;;
34805;SDS011;65084;42.196;25.326;2023-07-20T02:08:54;6.85;;;5.60;;
34805;SDS011;65084;42.196;25.326;2023-07-20T02:11:22;15.82;;;6.38;;
34805;SDS011;65084;42.196;25.326;2023-07-20T02:13:49;8.70;;;6.30;;
34805;SDS011;65084;42.196;25.326;2023-07-20T02:16:16;7.15;;;6.45;;
34805;SDS011;65084;42.196;25.326;2023-07-20T02:18:43;13.32;;;6.57;;
34805;SDS011;65084;42.196;25.326;2023-07-20T02:21:11;10.70;;;6.53;;
34805;SDS011;65084;42.196;25.326;2023-07-20T02:23:39;7.00;;;6.20;;
34805;SDS011;65084;42.196;25.326;2023-07-20T02:26:06;9.50;;;6.97;;
34805;SDS011;65084;42.196;25.326;2023-07-20T02:28:34;13.70;;;6.60;;
34805;SDS011;65084;42.196;25.326;2023-07-20T02:31:01;15.43;;;7.30;;
34805;SDS011;65084;42.196;25.326;2023-07-20T02:33:28;8.93;;;6.60;;
34805;SDS011;65084;42.196;25.326;2023-07-20T02:35:56;15.50;;;6.40;;
34805;SDS011;65084;42.196;25.326;2023-07-20T02:38:23;15.32;;;6.25;;
34805;SDS011;65084;42.196;25.326;2023-07-20T02:40:51;7.70;;;7.00;;
34805;SDS011;65084;42.196;25.326;2023-07-20T02:43:19;17.02;;;7.25;;
34805;SDS011;65084;42.196;25.326;2023-07-20T02:45:46;12.63;;;6.72;;
34805;SDS011;65084;42.196;25.326;2023-07-20T02:48:13;11.13;;;6.00;;
34805;SDS011;65084;42.196;25.326;2023-07-20T02:50:41;7.35;;;6.72;;
34805;SDS011;65084;42.196;25.326;2023-07-20T02:53:08;10.80;;;6.95;;
34805;SDS011;65084;42.196;25.326;2023-07-20T02:55:35;15.85;;;6.93;;
34805;SDS011;65084;42.196;25.326;2023-07-20T02:58:04;12.40;;;6.55;;
34805;SDS011;65084;42.196;25.326;2023-07-20T03:00:32;14.27;;;6.40;;
34805;SDS011;65084;42.196;25.326;2023-07-20T03:02:59;7.20;;;6.28;;
34805;SDS011;65084;42.196;25.326;2023-07-20T03:05:27;12.90;;;6.70;;
34805;SDS011;65084;42.196;25.326;2023-07-20T03:07:54;9.63;;;6.43;;
34805;SDS011;65084;42.196;25.326;2023-07-20T03:10:22;9.02;;;6.32;;
34805;SDS011;65084;42.196;25.326;2023-07-20T03:12:49;7.30;;;6.60;;
34805;SDS011;65084;42.196;25.326;2023-07-20T03:15:18;10.43;;;5.85;;
34805;SDS011;65084;42.196;25.326;2023-07-20T03:17:45;17.45;;;6.07;;
34805;SDS011;65084;42.196;25.326;2023-07-20T03:20:12;7.28;;;6.00;;
34805;SDS011;65084;42.196;25.326;2023-07-20T03:22:39;9.95;;;6.15;;
34805;SDS011;65084;42.196;25.326;2023-07-20T03:25:07;9.88;;;6.22;;
34805;SDS011;65084;42.196;25.326;2023-07-20T03:27:34;9.40;;;6.65;;
34805;SDS011;65084;42.196;25.326;2023-07-20T03:30:02;12.15;;;6.35;;
34805;SDS011;65084;42.196;25.326;2023-07-20T03:32:30;10.88;;;6.43;;
34805;SDS011;65084;42.196;25.326;2023-07-20T03:34:58;10.02;;;5.47;;
34805;SDS011;65084;42.196;25.326;2023-07-20T03:37:25;12.68;;;6.47;;
34805;SDS011;65084;42.196;25.326;2023-07-20T03:39:52;15.60;;;6.47;;
34805;SDS011;65084;42.196;25.326;2023-07-20T03:42:19;13.48;;;6.47;;
34805;SDS011;65084;42.196;25.326;2023-07-20T03:44:47;6.93;;;6.22;;
34805;SDS011;65084;42.196;25.326;2023-07-20T03:47:15;17.73;;;6.90;;
34805;SDS011;65084;42.196;25.326;2023-07-20T03:49:44;15.30;;;6.00;;
34805;SDS011;65084;42.196;25.326;2023-07-20T03:52:11;50.42;;;7.78;;
34805;SDS011;65084;42.196;25.326;2023-07-20T03:54:39;9.25;;;5.93;;
34805;SDS011;65084;42.196;25.326;2023-07-20T03:57:06;18.45;;;7.03;;
34805;SDS011;65084;42.196;25.326;2023-07-20T03:59:34;14.60;;;5.93;;
34805;SDS011;65084;42.196;25.326;2023-07-20T04:02:02;19.63;;;5.93;;
34805;SDS011;65084;42.196;25.326;2023-07-20T04:04:30;9.57;;;5.95;;
34805;SDS011;65084;42.196;25.326;2023-07-20T04:06:59;22.55;;;6.63;;
34805;SDS011;65084;42.196;25.326;2023-07-20T04:09:26;15.80;;;6.30;;
34805;SDS011;65084;42.196;25.326;2023-07-20T04:11:54;10.38;;;5.97;;
34805;SDS011;65084;42.196;25.326;2023-07-20T04:14:21;13.13;;;5.72;;
34805;SDS011;65084;42.196;25.326;2023-07-20T04:16:48;19.83;;;6.05;;
34805;SDS011;65084;42.196;25.326;2023-07-20T04:19:16;16.08;;;6.32;;
34805;SDS011;65084;42.196;25.326;2023-07-20T04:21:43;17.45;;;6.20;;
34805;SDS011;65084;42.196;25.326;2023-07-20T04:24:12;19.10;;;7.05;;
34805;SDS011;65084;42.196;25.326;2023-07-20T04:26:39;9.85;;;5.93;;
34805;SDS011;65084;42.196;25.326;2023-07-20T04:29:07;14.02;;;5.68;;
34805;SDS011;65084;42.196;25.326;2023-07-20T04:31:34;16.48;;;5.82;;
34805;SDS011;65084;42.196;25.326;2023-07-20T04:34:01;25.75;;;6.55;;
34805;SDS011;65084;42.196;25.326;2023-07-20T04:36:29;17.52;;;5.45;;
34805;SDS011;65084;42.196;25.326;2023-07-20T04:38:56;12.75;;;6.15;;
34805;SDS011;65084;42.196;25.326;2023-07-20T04:41:25;10.30;;;5.97;;
34805;SDS011;65084;42.196;25.326;2023-07-20T04:43:52;16.08;;;5.90;;
34805;SDS011;65084;42.196;25.326;2023-07-20T04:46:19;7.78;;;5.32;;
34805;SDS011;65084;42.196;25.326;2023-07-20T04:48:46;15.15;;;5.35;;
34805;SDS011;65084;42.196;25.326;2023-07-20T04:51:14;11.77;;;6.07;;
34805;SDS011;65084;42.196;25.326;2023-07-20T04:53:42;14.60;;;5.50;;
34805;SDS011;65084;42.196;25.326;2023-07-20T04:56:09;9.65;;;5.78;;
34805;SDS011;65084;42.196;25.326;2023-07-20T04:58:38;20.25;;;5.78;;
34805;SDS011;65084;42.196;25.326;2023-07-20T05:01:05;10.27;;;5.45;;
34805;SDS011;65084;42.196;25.326;2023-07-20T05:03:33;8.88;;;5.63;;
34805;SDS011;65084;42.196;25.326;2023-07-20T05:06:00;13.73;;;5.72;;
34805;SDS011;65084;42.196;25.326;2023-07-20T05:08:27;29.00;;;7.03;;
34805;SDS011;65084;42.196;25.326;2023-07-20T05:10:54;14.32;;;6.60;;
34805;SDS011;65084;42.196;25.326;2023-07-20T05:13:22;16.90;;;5.53;;
34805;SDS011;65084;42.196;25.326;2023-07-20T05:15:52;16.90;;;5.18;;
34805;SDS011;65084;42.196;25.326;2023-07-20T05:18:19;11.60;;;5.20;;
34805;SDS011;65084;42.196;25.326;2023-07-20T05:20:47;18.08;;;4.90;;
34805;SDS011;65084;42.196;25.326;2023-07-20T05:23:14;7.78;;;4.75;;
34805;SDS011;65084;42.196;25.326;2023-07-20T05:25:41;9.70;;;5.20;;
34805;SDS011;65084;42.196;25.326;2023-07-20T05:28:09;12.85;;;5.30;;
34805;SDS011;65084;42.196;25.326;2023-07-20T05:30:36;13.13;;;5.55;;
34805;SDS011;65084;42.196;25.326;2023-07-20T05:33:05;6.40;;;5.05;;
34805;SDS011;65084;42.196;25.326;2023-07-20T05:35:32;18.67;;;6.10;;
34805;SDS011;65084;42.196;25.326;2023-07-20T05:37:59;12.35;;;5.00;;
34805;SDS011;65084;42.196;25.326;2023-07-20T05:40:27;25.05;;;5.47;;
34805;SDS011;65084;42.196;25.326;2023-07-20T05:42:54;16.23;;;6.30;;
34805;SDS011;65084;42.196;25.326;2023-07-20T05:45:22;23.15;;;5.95;;
34805;SDS011;65084;42.196;25.326;2023-07-20T05:47:49;14.73;;;5.22;;
34805;SDS011;65084;42.196;25.326;2023-07-20T05:50:18;13.32;;;5.55;;
34805;SDS011;65084;42.196;25.326;2023-07-20T05:52:45;15.35;;;5.78;;
34805;SDS011;65084;42.196;25.326;2023-07-20T05:55:13;11.30;;;5.90;;
34805;SDS011;65084;42.196;25.326;2023-07-20T05:57:40;21.77;;;5.55;;
34805;SDS011;65084;42.196;25.326;2023-07-20T06:00:09;13.85;;;5.80;;
34805;SDS011;65084;42.196;25.326;2023-07-20T06:02:37;18.35;;;6.10;;
34805;SDS011;65084;42.196;25.326;2023-07-20T06:05:05;21.58;;;5.63;;
34805;SDS011;65084;42.196;25.326;2023-07-20T06:07:36;8.43;;;5.82;;
34805;SDS011;65084;42.196;25.326;2023-07-20T06:10:03;9.32;;;5.35;;
34805;SDS011;65084;42.196;25.326;2023-07-20T06:12:30;8.65;;;6.68;;
34805;SDS011;65084;42.196;25.326;2023-07-20T06:15:01;13.60;;;6.40;;
34805;SDS011;65084;42.196;25.326;2023-07-20T06:17:29;17.50;;;6.07;;
34805;SDS011;65084;42.196;25.326;2023-07-20T06:19:56;8.43;;;5.93;;
34805;SDS011;65084;42.196;25.326;2023-07-20T06:22:23;9.30;;;5.90;;
34805;SDS011;65084;42.196;25.326;2023-07-20T06:24:52;16.83;;;6.00;;
34805;SDS011;65084;42.196;25.326;2023-07-20T06:27:19;8.63;;;5.60;;
34805;SDS011;65084;42.196;25.326;2023-07-20T06:29:46;7.93;;;5.93;;
34805;SDS011;65084;42.196;25.326;2023-07-20T06:32:14;14.10;;;5.95;;
34805;SDS011;65084;42.196;25.326;2023-07-20T06:34:41;8.98;;;6.25;;
34805;SDS011;65084;42.196;25.326;2023-07-20T06:37:08;12.40;;;5.93;;
34805;SDS011;65084;42.196;25.326;2023-07-20T06:39:35;11.07;;;5.60;;
34805;SDS011;65084;42.196;25.326;2023-07-20T06:42:04;13.13;;;5.72;;
34805;SDS011;65084;42.196;25.326;2023-07-20T06:44:32;11.57;;;6.22;;
34805;SDS011;65084;42.196;25.326;2023-07-20T06:46:59;7.60;;;5.68;;
34805;SDS011;65084;42.196;25.326;2023-07-20T06:49:27;12.43;;;5.50;;
34805;SDS011;65084;42.196;25.326;2023-07-20T06:51:54;21.00;;;5.93;;
34805;SDS011;65084;42.196;25.326;2023-07-20T06:54:22;9.18;;;5.55;;
34805;SDS011;65084;42.196;25.326;2023-07-20T06:56:49;9.35;;;6.00;;
34805;SDS011;65084;42.196;25.326;2023-07-20T06:59:18;8.48;;;5.43;;
34805;SDS011;65084;42.196;25.326;2023-07-20T07:01:46;14.18;;;6.35;;
34805;SDS011;65084;42.196;25.326;2023-07-20T07:04:13;8.18;;;5.35;;
34805;SDS011;65084;42.196;25.326;2023-07-20T07:06:40;8.10;;;5.00;;
34805;SDS011;65084;42.196;25.326;2023-07-20T07:09:08;10.23;;;5.82;;
34805;SDS011;65084;42.196;25.326;2023-07-20T07:11:35;9.07;;;5.63;;
34805;SDS011;65084;42.196;25.326;2023-07-20T07:14:02;42.92;;;7.03;;
34805;SDS011;65084;42.196;25.326;2023-07-20T07:16:31;11.73;;;5.30;;
34805;SDS011;65084;42.196;25.326;2023-07-20T07:18:58;13.73;;;5.82;;
34805;SDS011;65084;42.196;25.326;2023-07-20T07:21:25;12.57;;;5.50;;
34805;SDS011;65084;42.196;25.326;2023-07-20T07:23:53;10.15;;;5.97;;
34805;SDS011;65084;42.196;25.326;2023-07-20T07:26:22;9.32;;;6.13;;
34805;SDS011;65084;42.196;25.326;2023-07-20T07:28:50;7.90;;;5.13;;
34805;SDS011;65084;42.196;25.326;2023-07-20T07:31:17;12.70;;;5.35;;
34805;SDS011;65084;42.196;25.326;2023-07-20T07:33:46;9.70;;;5.50;;
34805;SDS011;65084;42.196;25.326;2023-07-20T07:36:13;13.27;;;5.82;;
34805;SDS011;65084;42.196;25.326;2023-07-20T07:38:40;8.07;;;5.88;;
34805;SDS011;65084;42.196;25.326;2023-07-20T07:41:08;7.90;;;6.03;;
34805;SDS011;65084;42.196;25.326;2023-07-20T07:43:35;7.40;;;5.93;;
34805;SDS011;65084;42.196;25.326;2023-07-20T07:46:03;13.13;;;6.13;;
34805;SDS011;65084;42.196;25.326;2023-07-20T07:48:30;9.40;;;6.15;;
34805;SDS011;65084;42.196;25.326;2023-07-20T07:50:59;11.32;;;5.68;;
34805;SDS011;65084;42.196;25.326;2023-07-20T07:53:26;12.18;;;6.20;;
34805;SDS011;65084;42.196;25.326;2023-07-20T07:55:54;10.77;;;6.10;;
34805;SDS011;65084;42.196;25.326;2023-07-20T07:58:21;6.10;;;5.60;;
34805;SDS011;65084;42.196;25.326;2023-07-20T08:00:48;12.55;;;6.35;;
34805;SDS011;65084;42.196;25.326;2023-07-20T08:03:15;15.30;;;6.13;;
34805;SDS011;65084;42.196;25.326;2023-07-20T08:05:43;14.52;;;6.10;;
34805;SDS011;65084;42.196;25.326;2023-07-20T08:08:12;9.75;;;6.18;;
34805;SDS011;65084;42.196;25.326;2023-07-20T08:10:39;13.27;;;5.78;;
34805;SDS011;65084;42.196;25.326;2023-07-20T08:13:07;10.55;;;5.63;;
34805;SDS011;65084;42.196;25.326;2023-07-20T08:15:34;10.65;;;5.57;;
34805;SDS011;65084;42.196;25.326;2023-07-20T08:18:01;14.07;;;5.60;;
34805;SDS011;65084;42.196;25.326;2023-07-20T08:20:29;6.88;;;5.30;;
34805;SDS011;65084;42.196;25.326;2023-07-20T08:22:57;15.40;;;5.85;;
34805;SDS011;65084;42.196;25.326;2023-07-20T08:25:26;14.40;;;5.80;;
34805;SDS011;65084;42.196;25.326;2023-07-20T08:27:53;6.50;;;5.63;;
34805;SDS011;65084;42.196;25.326;2023-07-20T08:30:21;8.25;;;5.90;;
34805;SDS011;65084;42.196;25.326;2023-07-20T08:32:49;15.40;;;5.63;;
34805;SDS011;65084;42.196;25.326;2023-07-20T08:35:16;17.23;;;5.85;;
34805;SDS011;65084;42.196;25.326;2023-07-20T08:37:43;11.50;;;5.65;;
34805;SDS011;65084;42.196;25.326;2023-07-20T08:40:11;6.90;;;5.95;;
34805;SDS011;65084;42.196;25.326;2023-07-20T08:42:40;8.48;;;5.35;;
34805;SDS011;65084;42.196;25.326;2023-07-20T08:45:08;13.77;;;5.85;;
34805;SDS011;65084;42.196;25.326;2023-07-20T08:47:37;23.17;;;6.47;;
34805;SDS011;65084;42.196;25.326;2023-07-20T08:50:05;11.40;;;5.60;;
34805;SDS011;65084;42.196;25.326;2023-07-20T08:52:34;15.85;;;6.57;;
34805;SDS011;65084;42.196;25.326;2023-07-20T08:55:01;7.68;;;5.80;;
34805;SDS011;65084;42.196;25.326;2023-07-20T08:57:29;12.38;;;6.57;;
34805;SDS011;65084;42.196;25.326;2023-07-20T09:00:00;6.82;;;5.82;;
34805;SDS011;65084;42.196;25.326;2023-07-20T09:02:29;12.45;;;6.10;;
34805;SDS011;65084;42.196;25.326;2023-07-20T09:04:58;7.15;;;5.57;;
34805;SDS011;65084;42.196;25.326;2023-07-20T09:07:25;6.97;;;5.68;;
34805;SDS011;65084;42.196;25.326;2023-07-20T09:09:53;9.60;;;6.05;;
34805;SDS011;65084;42.196;25.326;2023-07-20T09:12:23;7.82;;;6.07;;
34805;SDS011;65084;42.196;25.326;2023-07-20T09:14:50;8.45;;;6.03;;
34805;SDS011;65084;42.196;25.326;2023-07-20T09:17:19;8.27;;;5.80;;
34805;SDS011;65084;42.196;25.326;2023-07-20T09:19:47;13.30;;;5.45;;
34805;SDS011;65084;42.196;25.326;2023-07-20T09:22:14;14.55;;;6.07;;
34805;SDS011;65084;42.196;25.326;2023-07-20T09:24:42;14.30;;;5.95;;
34805;SDS011;65084;42.196;25.326;2023-07-20T09:27:10;8.57;;;5.55;;
34805;SDS011;65084;42.196;25.326;2023-07-20T09:29:49;21.65;;;5.40;;
34805;SDS011;65084;42.196;25.326;2023-07-20T09:32:22;19.92;;;6.20;;
34805;SDS011;65084;42.196;25.326;2023-07-20T09:34:51;11.27;;;5.95;;
34805;SDS011;65084;42.196;25.326;2023-07-20T09:37:21;9.50;;;5.28;;
34805;SDS011;65084;42.196;25.326;2023-07-20T09:39:51;8.18;;;6.22;;
34805;SDS011;65084;42.196;25.326;2023-07-20T09:42:19;9.18;;;5.63;;
34805;SDS011;65084;42.196;25.326;2023-07-20T09:44:50;8.68;;;5.53;;
34805;SDS011;65084;42.196;25.326;2023-07-20T09:47:22;8.90;;;5.80;;
34805;SDS011;65084;42.196;25.326;2023-07-20T09:49:54;9.05;;;6.65;;
34805;SDS011;65084;42.196;25.326;2023-07-20T09:52:23;12.88;;;5.90;;
34805;SDS011;65084;42.196;25.326;2023-07-20T09:54:51;13.68;;;6.22;;
34805;SDS011;65084;42.196;25.326;2023-07-20T09:57:20;8.88;;;6.38;;
34805;SDS011;65084;42.196;25.326;2023-07-20T09:59:48;13.45;;;5.80;;
34805;SDS011;65084;42.196;25.326;2023-07-20T10:02:18;12.38;;;5.90;;
34805;SDS011;65084;42.196;25.326;2023-07-20T10:04:48;6.00;;;5.40;;
34805;SDS011;65084;42.196;25.326;2023-07-20T10:07:16;9.02;;;5.82;;
34805;SDS011;65084;42.196;25.326;2023-07-20T10:09:46;8.23;;;6.30;;
34805;SDS011;65084;42.196;25.326;2023-07-20T10:12:15;7.30;;;5.40;;
34805;SDS011;65084;42.196;25.326;2023-07-20T10:14:44;17.17;;;5.93;;
34805;SDS011;65084;42.196;25.326;2023-07-20T10:17:17;6.72;;;6.03;;
34805;SDS011;65084;42.196;25.326;2023-07-20T10:19:46;17.50;;;6.60;;
34805;SDS011;65084;42.196;25.326;2023-07-20T10:22:17;9.38;;;5.82;;
34805;SDS011;65084;42.196;25.326;2023-07-20T10:24:46;8.60;;;6.07;;
34805;SDS011;65084;42.196;25.326;2023-07-20T10:27:14;10.80;;;5.57;;
34805;SDS011;65084;42.196;25.326;2023-07-20T10:29:41;10.25;;;5.72;;
34805;SDS011;65084;42.196;25.326;2023-07-20T10:32:09;9.48;;;6.18;;
34805;SDS011;65084;42.196;25.326;2023-07-20T10:34:36;14.90;;;6.75;;
34805;SDS011;65084;42.196;25.326;2023-07-20T10:37:04;15.25;;;5.75;;
34805;SDS011;65084;42.196;25.326;2023-07-20T10:39:33;9.63;;;6.60;;
34805;SDS011;65084;42.196;25.326;2023-07-20T10:42:01;9.27;;;5.18;;
34805;SDS011;65084;42.196;25.326;2023-07-20T10:44:29;9.32;;;6.22;;
34805;SDS011;65084;42.196;25.326;2023-07-20T10:47:00;8.25;;;5.32;;
34805;SDS011;65084;42.196;25.326;2023-07-20T10:49:27;7.28;;;6.13;;
34805;SDS011;65084;42.196;25.326;2023-07-20T10:51:58;9.02;;;5.63;;
34805;SDS011;65084;42.196;25.326;2023-07-20T10:54:34;11.40;;;6.25;;
34805;SDS011;65084;42.196;25.326;2023-07-20T10:59:48;8.60;;;5.85;;
34805;SDS011;65084;42.196;25.326;2023-07-20T11:02:17;10.50;;;5.90;;
34805;SDS011;65084;42.196;25.326;2023-07-20T11:04:45;9.35;;;5.60;;
34805;SDS011;65084;42.196;25.326;2023-07-20T11:07:15;11.20;;;6.00;;
34805;SDS011;65084;42.196;25.326;2023-07-20T11:09:44;7.53;;;5.38;;
34805;SDS011;65084;42.196;25.326;2023-07-20T11:12:11;18.95;;;5.88;;
34805;SDS011;65084;42.196;25.326;2023-07-20T11:14:40;11.98;;;5.70;;
34805;SDS011;65084;42.196;25.326;2023-07-20T11:17:10;18.08;;;5.65;;
34805;SDS011;65084;42.196;25.326;2023-07-20T11:19:38;14.82;;;6.25;;
34805;SDS011;65084;42.196;25.326;2023-07-20T11:22:06;12.93;;;5.75;;
34805;SDS011;65084;42.196;25.326;2023-07-20T11:24:34;11.52;;;6.35;;
34805;SDS011;65084;42.196;25.326;2023-07-20T11:27:03;12.65;;;5.82;;
34805;SDS011;65084;42.196;25.326;2023-07-20T11:29:31;11.15;;;6.20;;
34805;SDS011;65084;42.196;25.326;2023-07-20T11:31:58;18.25;;;6.47;;
34805;SDS011;65084;42.196;25.326;2023-07-20T11:34:25;34.92;;;7.22;;
34805;SDS011;65084;42.196;25.326;2023-07-20T11:36:53;9.55;;;5.90;;
34805;SDS011;65084;42.196;25.326;2023-07-20T11:39:21;12.45;;;6.55;;
34805;SDS011;65084;42.196;25.326;2023-07-20T11:41:50;10.55;;;6.10;;
34805;SDS011;65084;42.196;25.326;2023-07-20T11:44:20;11.52;;;6.00;;
34805;SDS011;65084;42.196;25.326;2023-07-20T11:46:59;14.40;;;6.38;;
34805;SDS011;65084;42.196;25.326;2023-07-20T11:49:27;8.88;;;6.13;;
34805;SDS011;65084;42.196;25.326;2023-07-20T11:51:54;7.38;;;5.88;;
34805;SDS011;65084;42.196;25.326;2023-07-20T11:54:22;13.35;;;6.22;;
34805;SDS011;65084;42.196;25.326;2023-07-20T11:56:53;8.63;;;6.07;;
34805;SDS011;65084;42.196;25.326;2023-07-20T11:59:22;8.65;;;6.00;;
34805;SDS011;65084;42.196;25.326;2023-07-20T12:01:49;6.45;;;5.85;;
34805;SDS011;65084;42.196;25.326;2023-07-20T12:04:16;13.75;;;6.47;;
34805;SDS011;65084;42.196;25.326;2023-07-20T12:06:44;8.48;;;5.97;;
34805;SDS011;65084;42.196;25.326;2023-07-20T12:09:13;9.90;;;6.13;;
34805;SDS011;65084;42.196;25.326;2023-07-20T12:11:42;13.25;;;6.25;;
34805;SDS011;65084;42.196;25.326;2023-07-20T12:14:10;11.05;;;6.38;;
34805;SDS011;65084;42.196;25.326;2023-07-20T12:16:39;7.95;;;5.95;;
34805;SDS011;65084;42.196;25.326;2023-07-20T12:19:07;10.32;;;6.10;;
34805;SDS011;65084;42.196;25.326;2023-07-20T12:21:34;8.60;;;5.93;;
34805;SDS011;65084;42.196;25.326;2023-07-20T12:24:03;16.70;;;6.75;;
34805;SDS011;65084;42.196;25.326;2023-07-20T12:26:30;11.13;;;6.45;;
34805;SDS011;65084;42.196;25.326;2023-07-20T12:28:58;10.35;;;6.05;;
34805;SDS011;65084;42.196;25.326;2023-07-20T12:31:26;8.18;;;5.72;;
34805;SDS011;65084;42.196;25.326;2023-07-20T12:33:56;12.65;;;6.35;;
34805;SDS011;65084;42.196;25.326;2023-07-20T12:36:24;12.38;;;6.10;;
34805;SDS011;65084;42.196;25.326;2023-07-20T12:38:51;11.73;;;5.50;;
34805;SDS011;65084;42.196;25.326;2023-07-20T12:41:19;6.38;;;5.57;;
34805;SDS011;65084;42.196;25.326;2023-07-20T12:43:46;11.68;;;5.75;;
34805;SDS011;65084;42.196;25.326;2023-07-20T12:46:14;14.20;;;5.82;;
34805;SDS011;65084;42.196;25.326;2023-07-20T12:48:42;13.10;;;5.55;;
34805;SDS011;65084;42.196;25.326;2023-07-20T12:51:11;11.75;;;5.90;;
34805;SDS011;65084;42.196;25.326;2023-07-20T12:53:39;10.48;;;5.95;;
34805;SDS011;65084;42.196;25.326;2023-07-20T12:56:06;8.68;;;5.10;;
34805;SDS011;65084;42.196;25.326;2023-07-20T12:58:33;12.43;;;5.60;;
34805;SDS011;65084;42.196;25.326;2023-07-20T13:01:01;15.40;;;5.20;;
34805;SDS011;65084;42.196;25.326;2023-07-20T13:03:29;13.77;;;5.60;;
34805;SDS011;65084;42.196;25.326;2023-07-20T13:05:56;11.70;;;5.47;;
34805;SDS011;65084;42.196;25.326;2023-07-20T13:08:25;8.68;;;5.57;;
34805;SDS011;65084;42.196;25.326;2023-07-20T13:10:53;17.70;;;7.72;;
34805;SDS011;65084;42.196;25.326;2023-07-20T13:13:20;17.92;;;6.32;;
34805;SDS011;65084;42.196;25.326;2023-07-20T13:15:47;11.63;;;5.60;;
34805;SDS011;65084;42.196;25.326;2023-07-20T13:18:15;15.93;;;5.97;;
34805;SDS011;65084;42.196;25.326;2023-07-20T13:20:43;8.40;;;5.75;;
34805;SDS011;65084;42.196;25.326;2023-07-20T13:23:10;16.75;;;6.68;;
34805;SDS011;65084;42.196;25.326;2023-07-20T13:25:39;11.20;;;6.00;;
34805;SDS011;65084;42.196;25.326;2023-07-20T13:28:07;15.38;;;5.65;;
34805;SDS011;65084;42.196;25.326;2023-07-20T13:30:34;9.52;;;5.78;;
34805;SDS011;65084;42.196;25.326;2023-07-20T13:33:01;12.13;;;6.03;;
34805;SDS011;65084;42.196;25.326;2023-07-20T13:35:29;10.25;;;5.72;;
34805;SDS011;65084;42.196;25.326;2023-07-20T13:37:56;18.05;;;5.72;;
34805;SDS011;65084;42.196;25.326;2023-07-20T13:40:23;19.75;;;6.07;;
34805;SDS011;65084;42.196;25.326;2023-07-20T13:42:52;13.30;;;6.20;;
34805;SDS011;65084;42.196;25.326;2023-07-20T13:45:19;14.07;;;5.43;;
34805;SDS011;65084;42.196;25.326;2023-07-20T13:47:46;11.32;;;5.38;;
34805;SDS011;65084;42.196;25.326;2023-07-20T13:50:14;18.45;;;5.40;;
34805;SDS011;65084;42.196;25.326;2023-07-20T13:52:41;11.60;;;5.88;;
34805;SDS011;65084;42.196;25.326;2023-07-20T13:55:08;11.88;;;5.35;;
34805;SDS011;65084;42.196;25.326;2023-07-20T13:57:35;10.55;;;5.70;;
34805;SDS011;65084;42.196;25.326;2023-07-20T14:00:05;10.88;;;5.90;;
34805;SDS011;65084;42.196;25.326;2023-07-20T14:02:36;26.38;;;7.82;;
34805;SDS011;65084;42.196;25.326;2023-07-20T14:05:03;19.65;;;6.40;;
34805;SDS011;65084;42.196;25.326;2023-07-20T14:07:31;21.70;;;6.95;;
34805;SDS011;65084;42.196;25.326;2023-07-20T14:09:58;19.55;;;6.60;;
34805;SDS011;65084;42.196;25.326;2023-07-20T14:12:25;17.55;;;7.15;;
34805;SDS011;65084;42.196;25.326;2023-07-20T14:14:53;12.52;;;7.28;;
34805;SDS011;65084;42.196;25.326;2023-07-20T14:17:21;17.13;;;6.95;;
34805;SDS011;65084;42.196;25.326;2023-07-20T14:19:49;37.60;;;7.18;;
34805;SDS011;65084;42.196;25.326;2023-07-20T14:22:16;13.45;;;6.80;;
34805;SDS011;65084;42.196;25.326;2023-07-20T14:24:43;6.68;;;6.07;;
34805;SDS011;65084;42.196;25.326;2023-07-20T14:27:10;12.57;;;6.13;;
34805;SDS011;65084;42.196;25.326;2023-07-20T14:29:38;16.10;;;6.68;;
34805;SDS011;65084;42.196;25.326;2023-07-20T14:32:05;11.48;;;5.82;;
34805;SDS011;65084;42.196;25.326;2023-07-20T14:34:34;8.73;;;6.43;;
34805;SDS011;65084;42.196;25.326;2023-07-20T14:37:01;10.93;;;5.97;;